createdAt,value
2023-06-04T00:00:01.182Z,28.27
2023-06-04T00:02:28.404Z,33.22
2023-06-04T00:04:55.712Z,27.50
2023-06-04T00:07:23.008Z,29.90
2023-06-04T00:09:50.241Z,27.85
2023-06-04T00:12:17.910Z,31.33
2023-06-04T00:14:45.167Z,27.85
2023-06-04T00:17:12.529Z,28.15
2023-06-04T00:19:41.334Z,29.58
2023-06-04T00:22:08.949Z,27.48
2023-06-04T00:24:39.127Z,33.83
2023-06-04T00:27:07.992Z,29.42
2023-06-04T00:29:35.019Z,34.25
2023-06-04T00:32:02.719Z,38.00
2023-06-04T00:34:30.011Z,33.60
2023-06-04T00:36:57.180Z,35.45
2023-06-04T00:39:24.328Z,31.63
2023-06-04T00:41:51.423Z,36.90
2023-06-04T00:44:18.854Z,35.83
2023-06-04T00:46:46.727Z,33.33
2023-06-04T00:49:14.062Z,31.08
2023-06-04T00:51:41.642Z,29.10
2023-06-04T00:54:10.439Z,31.05
2023-06-04T00:56:38.540Z,29.23
2023-06-04T00:59:12.574Z,30.88
2023-06-04T01:01:55.190Z,30.38
2023-06-04T01:04:46.988Z,30.90
2023-06-04T01:07:16.888Z,31.23
2023-06-04T01:09:46.236Z,27.17
2023-06-04T01:12:13.670Z,25.75
2023-06-04T01:14:41.805Z,34.00
2023-06-04T01:17:11.719Z,29.13
2023-06-04T01:20:12.989Z,27.45
2023-06-04T01:22:42.932Z,24.73
2023-06-04T01:25:35.001Z,27.13
2023-06-04T01:28:04.492Z,26.63
2023-06-04T01:30:37.699Z,27.55
2023-06-04T01:33:05.124Z,28.00
2023-06-04T01:35:32.586Z,33.92
2023-06-04T01:37:59.990Z,25.38
2023-06-04T01:40:27.695Z,27.55
2023-06-04T01:42:56.002Z,29.00
2023-06-04T01:45:24.074Z,27.88
2023-06-04T01:47:51.307Z,23.73
2023-06-04T01:50:18.522Z,26.10
2023-06-04T01:52:45.847Z,29.15
2023-06-04T01:55:16.929Z,26.13
2023-06-04T01:57:45.628Z,26.98
2023-06-04T02:00:13.849Z,26.38
2023-06-04T02:02:43.033Z,28.20
2023-06-04T02:05:11.512Z,29.23
2023-06-04T02:07:46.114Z,26.52
2023-06-04T02:10:15.652Z,24.05
2023-06-04T02:12:55.240Z,25.27
2023-06-04T02:15:24.892Z,25.95
2023-06-04T02:17:52.724Z,29.02
2023-06-04T02:20:19.956Z,26.45
2023-06-04T02:22:47.163Z,26.05
2023-06-04T02:25:14.229Z,28.63
2023-06-04T02:27:41.419Z,30.83
2023-06-04T02:30:09.289Z,28.95
2023-06-04T02:32:37.382Z,28.10
2023-06-04T02:35:05.511Z,27.65
2023-06-04T02:37:32.823Z,25.08
2023-06-04T02:39:59.876Z,26.73
2023-06-04T02:42:27.066Z,25.42
2023-06-04T02:44:54.173Z,30.13
2023-06-04T02:47:21.513Z,26.20
2023-06-04T02:49:48.565Z,28.98
2023-06-04T02:52:15.747Z,27.98
2023-06-04T02:54:42.818Z,32.03
2023-06-04T02:57:09.971Z,33.08
2023-06-04T02:59:37.729Z,32.00
2023-06-04T03:02:05.764Z,33.35
2023-06-04T03:04:35.657Z,31.80
2023-06-04T03:07:04.158Z,30.83
2023-06-04T03:09:35.134Z,32.78
2023-06-04T03:12:03.157Z,28.65
2023-06-04T03:14:34.560Z,33.78
2023-06-04T03:17:08.676Z,32.72
2023-06-04T03:19:41.530Z,33.42
2023-06-04T03:22:10.192Z,34.22
2023-06-04T03:24:41.151Z,31.67
2023-06-04T03:27:10.222Z,34.08
2023-06-04T03:29:38.821Z,36.30
2023-06-04T03:32:08.189Z,28.98
2023-06-04T03:34:36.079Z,33.10
2023-06-04T03:37:04.176Z,33.00
2023-06-04T03:39:32.864Z,34.42
2023-06-04T03:42:02.372Z,31.33
2023-06-04T03:44:30.643Z,34.63
2023-06-04T03:46:58.092Z,31.75
2023-06-04T03:49:25.465Z,32.90
2023-06-04T03:51:52.774Z,33.40
2023-06-04T03:54:22.442Z,33.75
2023-06-04T03:56:51.189Z,33.17
2023-06-04T03:59:18.382Z,30.13
2023-06-04T04:01:47.029Z,29.27
2023-06-04T04:04:14.296Z,27.42
2023-06-04T04:06:42.617Z,29.80
2023-06-04T04:09:10.528Z,36.05
2023-06-04T04:11:38.097Z,27.95
2023-06-04T04:14:05.779Z,44.40
2023-06-04T04:16:34.077Z,29.55
2023-06-04T04:19:01.330Z,28.42
2023-06-04T04:21:28.541Z,29.25
2023-06-04T04:23:55.934Z,33.00
2023-06-04T04:26:25.054Z,33.03
2023-06-04T04:28:59.334Z,35.03
2023-06-04T04:31:29.390Z,32.63
2023-06-04T04:33:57.528Z,32.28
2023-06-04T04:36:25.166Z,32.38
2023-06-04T04:38:56.026Z,33.75
2023-06-04T04:41:30.310Z,34.00
2023-06-04T04:44:05.276Z,32.80
2023-06-04T04:46:33.313Z,31.10
2023-06-04T04:49:00.425Z,31.05
2023-06-04T04:51:27.885Z,34.35
2023-06-04T04:53:56.152Z,31.05
2023-06-04T04:56:24.958Z,28.80
2023-06-04T04:58:52.977Z,26.83
2023-06-04T05:01:21.467Z,25.90
2023-06-04T05:03:49.735Z,31.77
2023-06-04T05:06:17.754Z,30.40
2023-06-04T05:08:45.436Z,32.25
2023-06-04T05:11:14.313Z,39.75
2023-06-04T05:13:43.007Z,34.22
2023-06-04T05:16:12.860Z,27.77
2023-06-04T05:18:42.948Z,28.45
2023-06-04T05:21:13.415Z,29.77
2023-06-04T05:23:49.856Z,29.25
2023-06-04T05:26:24.200Z,31.25
2023-06-04T05:28:52.823Z,29.85
2023-06-04T05:31:20.086Z,27.77
2023-06-04T05:33:49.212Z,30.08
2023-06-04T05:36:21.077Z,32.90
2023-06-04T05:38:58.696Z,50.20
2023-06-04T05:41:32.072Z,61.63
2023-06-04T05:44:01.816Z,48.72
2023-06-04T05:46:29.976Z,41.72
2023-06-04T05:48:57.164Z,39.25
2023-06-04T05:51:25.371Z,33.80
2023-06-04T05:53:52.563Z,42.55
2023-06-04T05:56:20.193Z,30.70
2023-06-04T05:58:53.562Z,28.98
2023-06-04T06:01:23.024Z,24.40
2023-06-04T06:03:52.109Z,28.67
2023-06-04T06:06:22.280Z,23.83
2023-06-04T06:08:50.875Z,27.23
2023-06-04T06:11:19.065Z,25.27
2023-06-04T06:13:46.501Z,21.80
2023-06-04T06:16:14.632Z,22.67
2023-06-04T06:18:41.971Z,20.15
2023-06-04T06:21:09.426Z,23.40
2023-06-04T06:23:37.381Z,22.77
2023-06-04T06:26:09.332Z,24.33
2023-06-04T06:28:44.699Z,25.38
2023-06-04T06:31:12.719Z,20.85
2023-06-04T06:33:42.493Z,21.55
2023-06-04T06:36:13.480Z,23.92
2023-06-04T06:38:41.483Z,20.50
2023-06-04T06:41:09.692Z,26.58
2023-06-04T06:43:37.166Z,23.80
2023-06-04T06:46:04.237Z,22.00
2023-06-04T06:48:31.387Z,22.70
2023-06-04T06:50:58.440Z,22.65
2023-06-04T06:53:25.601Z,25.20
2023-06-04T06:55:52.648Z,22.23
2023-06-04T06:58:19.753Z,28.38
2023-06-04T07:00:47.085Z,23.83
2023-06-04T07:03:14.262Z,22.27
2023-06-04T07:05:41.474Z,20.50
2023-06-04T07:08:08.674Z,25.08
2023-06-04T07:10:35.829Z,22.90
2023-06-04T07:13:02.942Z,24.65
2023-06-04T07:15:30.108Z,25.73
2023-06-04T07:17:57.208Z,19.92
2023-06-04T07:20:24.542Z,21.30
2023-06-04T07:22:51.872Z,24.58
2023-06-04T07:25:19.057Z,23.23
2023-06-04T07:27:46.308Z,27.13
2023-06-04T07:30:13.766Z,23.25
2023-06-04T07:32:41.005Z,22.35
2023-06-04T07:35:08.739Z,22.05
2023-06-04T07:37:36.091Z,23.60
2023-06-04T07:40:05.059Z,23.10
2023-06-04T07:42:32.321Z,26.35
2023-06-04T07:44:59.896Z,25.70
2023-06-04T07:47:27.183Z,22.27
2023-06-04T07:50:02.350Z,25.23
2023-06-04T07:52:30.853Z,22.95
2023-06-04T07:54:57.969Z,26.05
2023-06-04T07:57:26.162Z,23.63
2023-06-04T07:59:53.349Z,21.65
2023-06-04T08:02:20.605Z,19.90
2023-06-04T08:04:48.730Z,21.50
2023-06-04T08:07:16.160Z,22.60
2023-06-04T08:09:45.201Z,22.17
2023-06-04T08:12:12.595Z,22.55
2023-06-04T08:14:40.140Z,19.63
2023-06-04T08:17:07.287Z,19.60
2023-06-04T08:19:34.366Z,18.90
2023-06-04T08:22:01.596Z,20.38
2023-06-04T08:24:28.838Z,21.08
2023-06-04T08:26:56.086Z,19.17
2023-06-04T08:29:23.956Z,19.10
2023-06-04T08:31:51.287Z,18.13
2023-06-04T08:34:18.373Z,19.50
2023-06-04T08:36:45.468Z,18.25
2023-06-04T08:39:12.620Z,16.50
2023-06-04T08:41:46.031Z,18.48
2023-06-04T08:44:13.742Z,18.35
2023-06-04T08:46:41.867Z,16.73
2023-06-04T08:49:09.762Z,18.33
2023-06-04T08:51:38.764Z,15.27
2023-06-04T08:54:10.037Z,15.73
2023-06-04T08:56:39.513Z,16.95
2023-06-04T08:59:08.774Z,17.67
2023-06-04T09:01:39.727Z,22.45
2023-06-04T09:04:11.845Z,19.33
2023-06-04T09:06:42.639Z,17.25
2023-06-04T09:09:11.493Z,16.75
2023-06-04T09:11:54.943Z,16.50
2023-06-04T09:14:22.618Z,18.00
2023-06-04T09:16:55.530Z,18.92
2023-06-04T09:19:23.722Z,19.73
2023-06-04T09:21:53.352Z,18.60
2023-06-04T09:24:22.164Z,19.23
2023-06-04T09:26:50.184Z,19.23
2023-06-04T09:29:18.247Z,20.10
2023-06-04T09:31:59.757Z,19.83
2023-06-04T09:34:30.942Z,17.33
2023-06-04T09:36:59.796Z,22.20
2023-06-04T09:39:28.300Z,23.48
2023-06-04T09:42:03.211Z,28.90
2023-06-04T09:44:31.564Z,23.42
2023-06-04T09:46:59.869Z,24.08
2023-06-04T09:49:27.226Z,21.83
2023-06-04T09:51:54.361Z,25.13
2023-06-04T09:54:21.622Z,23.80
2023-06-04T09:56:48.700Z,25.15
2023-06-04T09:59:16.274Z,23.38
2023-06-04T10:01:44.461Z,22.85
2023-06-04T10:04:14.642Z,22.58
2023-06-04T10:06:43.283Z,19.02
2023-06-04T10:09:12.308Z,19.13
2023-06-04T10:11:44.009Z,20.35
2023-06-04T10:14:26.504Z,22.15
2023-06-04T10:16:54.353Z,18.35
2023-06-04T10:19:24.824Z,18.58
2023-06-04T10:21:52.221Z,17.08
2023-06-04T10:24:21.248Z,18.15
2023-06-04T10:26:49.625Z,16.02
2023-06-04T10:29:18.966Z,17.25
2023-06-04T10:31:46.580Z,16.83
2023-06-04T10:34:14.843Z,15.55
2023-06-04T10:36:46.925Z,13.35
2023-06-04T10:39:14.941Z,14.33
2023-06-04T10:41:42.355Z,16.27
2023-06-04T10:44:09.647Z,15.35
2023-06-04T10:46:44.044Z,17.70
2023-06-04T10:49:13.484Z,13.73
2023-06-04T10:51:40.799Z,13.18
2023-06-04T10:54:08.391Z,15.45
2023-06-04T10:56:36.675Z,17.55
2023-06-04T10:59:15.959Z,20.83
2023-06-04T11:01:43.551Z,15.77
2023-06-04T11:04:25.056Z,18.50
2023-06-04T11:07:12.234Z,16.90
2023-06-04T11:09:49.719Z,15.70
2023-06-04T11:12:17.012Z,14.80
2023-06-04T11:15:04.429Z,14.40
2023-06-04T11:17:32.187Z,15.23
2023-06-04T11:20:01.414Z,18.50
2023-06-04T11:22:29.697Z,15.73
2023-06-04T11:25:00.505Z,19.13
2023-06-04T11:27:36.322Z,17.60
2023-06-04T11:30:06.431Z,15.73
2023-06-04T11:32:33.624Z,19.45
2023-06-04T11:35:12.195Z,15.55
2023-06-04T11:37:40.242Z,17.75
2023-06-04T11:40:20.480Z,19.73
2023-06-04T11:42:48.883Z,17.73
2023-06-04T11:45:20.491Z,16.33
2023-06-04T11:47:56.939Z,16.17
2023-06-04T11:50:27.926Z,20.25
2023-06-04T11:52:55.351Z,15.32
2023-06-04T11:55:23.176Z,22.02
2023-06-04T11:57:51.964Z,21.95
2023-06-04T12:00:21.315Z,16.73
2023-06-04T12:02:56.848Z,17.33
2023-06-04T12:05:29.972Z,17.08
2023-06-04T12:10:42.211Z,15.80
2023-06-04T12:13:11.282Z,19.48
2023-06-04T12:15:38.521Z,15.35
2023-06-04T12:18:06.376Z,15.32
2023-06-04T12:20:38.113Z,22.23
2023-06-04T12:23:07.188Z,18.65
2023-06-04T12:25:38.941Z,15.77
2023-06-04T12:28:06.805Z,19.33
2023-06-04T12:30:41.243Z,19.77
2023-06-04T12:33:08.909Z,17.38
2023-06-04T12:35:37.065Z,18.63
2023-06-04T12:38:06.606Z,17.98
2023-06-04T12:40:34.224Z,16.25
2023-06-04T12:43:01.576Z,17.15
2023-06-04T12:45:28.810Z,18.42
2023-06-04T12:47:56.062Z,17.80
2023-06-04T12:50:23.369Z,16.10
2023-06-04T12:52:51.085Z,16.50
2023-06-04T12:55:18.428Z,18.40
2023-06-04T12:57:45.978Z,16.25
2023-06-04T13:00:13.550Z,22.20
2023-06-04T13:02:40.736Z,18.13
2023-06-04T13:05:08.653Z,19.45
2023-06-04T13:07:35.845Z,19.88
2023-06-04T13:10:02.984Z,18.88
2023-06-04T13:12:30.212Z,17.30
2023-06-04T13:14:57.339Z,17.50
2023-06-04T13:17:24.621Z,16.75
2023-06-04T13:19:53.082Z,18.83
2023-06-04T13:22:20.169Z,18.08
2023-06-04T13:24:47.306Z,15.00
2023-06-04T13:27:14.355Z,20.35
2023-06-04T13:29:43.754Z,16.77
2023-06-04T13:32:12.234Z,17.70
2023-06-04T13:34:39.410Z,18.38
2023-06-04T13:37:07.281Z,18.35
2023-06-04T13:39:34.388Z,19.60
2023-06-04T13:42:01.538Z,22.05
2023-06-04T13:44:30.076Z,19.38
2023-06-04T13:47:00.253Z,18.52
2023-06-04T13:49:27.432Z,17.90
2023-06-04T13:51:54.467Z,17.60
2023-06-04T13:54:21.713Z,18.42
2023-06-04T13:56:49.742Z,20.60
2023-06-04T13:59:17.213Z,22.20
2023-06-04T14:01:44.651Z,20.65
2023-06-04T14:04:12.755Z,20.35
2023-06-04T14:06:40.115Z,19.05
2023-06-04T14:09:08.119Z,23.75
2023-06-04T14:11:35.402Z,17.83
2023-06-04T14:14:02.742Z,18.10
2023-06-04T14:16:30.015Z,19.75
2023-06-04T14:18:57.158Z,23.00
2023-06-04T14:21:24.334Z,20.65
2023-06-04T14:23:51.776Z,18.75
2023-06-04T14:26:19.185Z,17.75
2023-06-04T14:28:46.471Z,19.35
2023-06-04T14:31:13.637Z,22.02
2023-06-04T14:33:41.026Z,22.17
2023-06-04T14:36:08.232Z,19.35
2023-06-04T14:38:35.513Z,18.77
2023-06-04T14:41:02.730Z,19.27
2023-06-04T14:43:30.086Z,19.52
2023-06-04T14:45:57.312Z,21.30
2023-06-04T14:48:24.749Z,21.38
2023-06-04T14:50:54.668Z,18.75
2023-06-04T14:53:21.957Z,18.52
2023-06-04T14:55:49.136Z,21.67
2023-06-04T14:58:16.845Z,22.75
2023-06-04T15:00:43.995Z,21.02
2023-06-04T15:03:12.081Z,18.95
2023-06-04T15:05:39.459Z,20.40
2023-06-04T15:08:06.857Z,18.08
2023-06-04T15:10:35.182Z,20.02
2023-06-04T15:13:02.421Z,19.42
2023-06-04T15:15:29.562Z,19.33
2023-06-04T15:17:56.741Z,19.65
2023-06-04T15:20:26.371Z,20.33
2023-06-04T15:22:53.593Z,18.08
2023-06-04T15:25:21.125Z,18.65
2023-06-04T15:27:48.651Z,18.75
2023-06-04T15:30:15.741Z,20.75
2023-06-04T15:32:43.208Z,21.40
2023-06-04T15:35:11.172Z,20.05
2023-06-04T15:37:38.626Z,20.95
2023-06-04T15:40:08.702Z,19.20
2023-06-04T15:42:36.057Z,19.10
2023-06-04T15:45:03.475Z,17.73
2023-06-04T15:47:30.739Z,20.17
2023-06-04T15:49:57.984Z,22.60
2023-06-04T15:52:27.429Z,22.05
2023-06-04T15:54:54.677Z,19.70
2023-06-04T15:57:21.895Z,20.25
2023-06-04T15:59:49.148Z,22.83
2023-06-04T16:02:16.332Z,21.77
2023-06-04T16:04:43.591Z,25.40
2023-06-04T16:07:10.681Z,20.88
2023-06-04T16:09:38.477Z,21.23
2023-06-04T16:12:06.522Z,23.38
2023-06-04T16:14:33.723Z,20.25
2023-06-04T16:17:01.016Z,20.17
2023-06-04T16:19:28.181Z,22.90
2023-06-04T16:21:57.273Z,22.92
2023-06-04T16:24:24.376Z,23.33
2023-06-04T16:26:51.445Z,23.65
2023-06-04T16:29:18.714Z,19.63
2023-06-04T16:31:46.077Z,20.30
2023-06-04T16:34:13.227Z,18.45
2023-06-04T16:36:40.355Z,16.55
2023-06-04T16:39:07.391Z,15.40
2023-06-04T16:41:34.823Z,20.50
2023-06-04T16:44:01.949Z,19.42
2023-06-04T16:46:28.999Z,14.25
2023-06-04T16:48:56.094Z,16.77
2023-06-04T16:52:07.596Z,19.77
2023-06-04T16:54:34.899Z,19.08
2023-06-04T16:57:02.677Z,18.50
2023-06-04T16:59:31.565Z,17.42
2023-06-04T17:01:59.722Z,19.23
2023-06-04T17:04:26.947Z,16.08
2023-06-04T17:06:54.085Z,16.52
2023-06-04T17:09:21.181Z,15.98
2023-06-04T17:11:48.317Z,19.38
2023-06-04T17:14:15.518Z,19.77
2023-06-04T17:16:42.691Z,17.73
2023-06-04T17:19:10.004Z,25.20
2023-06-04T17:21:37.174Z,18.58
2023-06-04T17:24:04.600Z,16.70
2023-06-04T17:26:31.997Z,19.58
2023-06-04T17:28:59.848Z,20.58
2023-06-04T17:31:27.422Z,19.10
2023-06-04T17:33:54.557Z,18.52
2023-06-04T17:36:22.048Z,16.05
2023-06-04T17:38:50.354Z,17.65
2023-06-04T17:41:17.737Z,18.55
2023-06-04T17:43:44.955Z,18.77
2023-06-04T17:46:12.645Z,18.52
2023-06-04T17:48:40.273Z,22.98
2023-06-04T17:51:07.424Z,16.85
2023-06-04T17:53:34.583Z,16.58
2023-06-04T17:56:01.877Z,21.65
2023-06-04T17:58:30.484Z,21.83
2023-06-04T18:00:57.961Z,17.30
2023-06-04T18:03:25.195Z,22.48
2023-06-04T18:05:52.329Z,17.88
2023-06-04T18:08:19.689Z,20.08
2023-06-04T18:10:46.984Z,19.65
2023-06-04T18:13:14.270Z,27.55
2023-06-04T18:15:41.394Z,21.20
2023-06-04T18:18:08.624Z,20.98
2023-06-04T18:20:36.435Z,17.08
2023-06-04T18:23:04.306Z,20.50
2023-06-04T18:25:31.351Z,19.50
2023-06-04T18:27:58.966Z,17.77
2023-06-04T18:30:26.169Z,20.83
2023-06-04T18:32:55.108Z,20.60
2023-06-04T18:35:22.513Z,18.60
2023-06-04T18:37:49.930Z,18.25
2023-06-04T18:40:18.401Z,22.92
2023-06-04T18:42:47.160Z,21.00
2023-06-04T18:45:15.737Z,18.65
2023-06-04T18:47:44.881Z,21.20
2023-06-04T18:50:13.626Z,18.38
2023-06-04T18:52:41.615Z,22.35
2023-06-04T18:55:11.255Z,18.63
2023-06-04T18:57:40.257Z,23.95
2023-06-04T19:00:09.816Z,18.15
2023-06-04T19:02:39.458Z,22.77
2023-06-04T19:05:11.237Z,18.88
2023-06-04T19:07:41.980Z,23.67
2023-06-04T19:10:14.002Z,23.35
2023-06-04T19:12:43.842Z,20.77
2023-06-04T19:15:12.410Z,17.95
2023-06-04T19:17:40.330Z,24.42
2023-06-04T19:20:08.852Z,16.52
2023-06-04T19:22:38.763Z,17.55
2023-06-04T19:25:07.310Z,19.63
2023-06-04T19:27:36.383Z,23.67
2023-06-04T19:30:05.619Z,27.30
2023-06-04T19:32:34.396Z,20.40
2023-06-04T19:35:03.484Z,23.35
2023-06-04T19:37:31.975Z,19.02
2023-06-04T19:40:02.677Z,21.90
2023-06-04T19:42:32.075Z,20.35
2023-06-04T19:45:00.911Z,23.20
2023-06-04T19:47:28.890Z,22.23
2023-06-04T19:49:57.109Z,23.73
2023-06-04T19:52:26.197Z,26.50
2023-06-04T19:54:54.713Z,26.35
2023-06-04T19:57:23.099Z,22.70
2023-06-04T19:59:51.795Z,25.75
2023-06-04T20:02:20.301Z,24.95
2023-06-04T20:04:53.222Z,24.98
2023-06-04T20:07:22.018Z,19.00
2023-06-04T20:09:50.233Z,19.45
2023-06-04T20:12:19.565Z,28.67
2023-06-04T20:14:48.831Z,21.38
2023-06-04T20:17:17.419Z,22.05
2023-06-04T20:19:46.710Z,25.02
2023-06-04T20:22:14.538Z,21.58
2023-06-04T20:24:44.770Z,22.92
2023-06-04T20:27:14.254Z,23.17
2023-06-04T20:29:42.050Z,23.25
2023-06-04T20:32:10.434Z,25.83
2023-06-04T20:34:39.268Z,28.92
2023-06-04T20:37:08.337Z,24.70
2023-06-04T20:39:40.722Z,21.85
2023-06-04T20:42:08.782Z,23.85
2023-06-04T20:44:36.785Z,26.55
2023-06-04T20:47:04.802Z,23.88
2023-06-04T20:49:33.592Z,21.00
2023-06-04T20:52:02.438Z,23.67
2023-06-04T20:54:31.972Z,23.92
2023-06-04T20:57:00.811Z,24.83
2023-06-04T20:59:29.564Z,24.30
2023-06-04T21:01:57.508Z,19.90
2023-06-04T21:04:25.896Z,17.20
2023-06-04T21:06:53.834Z,23.38
2023-06-04T21:09:21.777Z,22.45
2023-06-04T21:11:49.024Z,21.05
2023-06-04T21:14:16.323Z,21.52
2023-06-04T21:16:43.689Z,21.75
2023-06-04T21:19:11.420Z,24.95
2023-06-04T21:21:41.621Z,26.52
2023-06-04T21:24:08.880Z,22.98
2023-06-04T21:26:36.061Z,18.25
2023-06-04T21:29:03.269Z,23.10
2023-06-04T21:31:30.325Z,24.00
2023-06-04T21:33:57.490Z,25.55
2023-06-04T21:36:24.710Z,19.42
2023-06-04T21:38:51.942Z,20.00
2023-06-04T21:41:19.443Z,20.67
2023-06-04T21:43:46.698Z,23.52
2023-06-04T21:46:14.711Z,26.30
2023-06-04T21:48:45.193Z,25.80
2023-06-04T21:51:12.564Z,19.08
2023-06-04T21:53:39.704Z,24.70
2023-06-04T21:56:06.859Z,25.88
2023-06-04T21:58:33.983Z,22.00
2023-06-04T22:01:01.202Z,25.35
2023-06-04T22:03:29.043Z,26.80
2023-06-04T22:05:56.466Z,27.60
2023-06-04T22:08:23.508Z,25.55
2023-06-04T22:10:50.724Z,23.42
2023-06-04T22:13:17.798Z,31.23
2023-06-04T22:15:45.081Z,30.88
2023-06-04T22:18:12.263Z,24.05
2023-06-04T22:20:39.557Z,20.38
2023-06-04T22:23:06.633Z,21.40
2023-06-04T22:25:33.873Z,19.08
2023-06-04T22:28:01.206Z,25.48
2023-06-04T22:30:28.456Z,22.08
2023-06-04T22:32:55.788Z,25.08
2023-06-04T22:35:23.781Z,23.13
2023-06-04T22:37:51.003Z,22.25
2023-06-04T22:40:18.877Z,21.23
2023-06-04T22:42:45.956Z,19.75
2023-06-04T22:45:13.173Z,19.27
2023-06-04T22:47:40.309Z,19.30
2023-06-04T22:50:09.311Z,20.60
2023-06-04T22:52:41.249Z,22.90
2023-06-04T22:55:12.561Z,21.80
2023-06-04T22:57:39.870Z,20.70
2023-06-04T23:00:08.510Z,21.58
2023-06-04T23:02:35.850Z,21.27
2023-06-04T23:05:03.650Z,17.05
2023-06-04T23:07:30.790Z,19.35
2023-06-04T23:09:57.966Z,20.13
2023-06-04T23:12:25.030Z,17.30
2023-06-04T23:14:52.289Z,23.90
2023-06-04T23:17:19.941Z,29.00
2023-06-04T23:19:47.088Z,20.20
2023-06-04T23:22:14.251Z,21.52
2023-06-04T23:24:41.482Z,21.02
2023-06-04T23:27:08.533Z,22.50
2023-06-04T23:29:35.653Z,20.98
2023-06-04T23:32:02.892Z,14.93
2023-06-04T23:34:29.986Z,19.52
2023-06-04T23:36:57.176Z,23.48
2023-06-04T23:39:24.368Z,18.98
2023-06-04T23:41:51.611Z,20.65
2023-06-04T23:44:18.739Z,16.55
2023-06-04T23:46:46.355Z,20.17
2023-06-04T23:49:13.421Z,18.80
2023-06-04T23:51:40.562Z,19.15
2023-06-04T23:54:07.680Z,21.33
2023-06-04T23:56:34.883Z,18.45
2023-06-04T23:59:02.567Z,24.33
